sensor_id;sensor_type;location;lat;lon;timestamp;pressure;altitude;pressure_sealevel;temperature;humidity
25232;BME280;13176;51.140;6.290;2022-07-09T00:00:07;102127.56;;;22.97;55.54
25232;BME280;13176;51.140;6.290;2022-07-09T00:02:33;102092.72;;;22.82;55.05
25232;BME280;13176;51.140;6.290;2022-07-09T00:05:00;102131.59;;;23.09;55.31
25232;BME280;13176;51.140;6.290;2022-07-09T00:07:32;102131.59;;;23.09;55.25
25232;BME280;13176;51.140;6.290;2022-07-09T00:09:59;102026.84;;;22.45;54.92
25232;BME280;13176;51.140;6.290;2022-07-09T00:12:25;102130.69;;;23.08;55.18
25232;BME280;13176;51.140;6.290;2022-07-09T00:14:52;102047.50;;;22.60;55.46
25232;BME280;13176;51.140;6.290;2022-07-09T00:17:18;102082.78;;;22.65;55.78
25232;BME280;13176;51.140;6.290;2022-07-09T00:19:44;102118.03;;;22.72;56.36
25232;BME280;13176;51.140;6.290;2022-07-09T00:22:11;102105.13;;;22.61;57.00
25232;BME280;13176;51.140;6.290;2022-07-09T00:24:37;102116.22;;;22.72;56.02
25232;BME280;13176;51.140;6.290;2022-07-09T00:27:04;102119.56;;;22.77;56.35
25232;BME280;13176;51.140;6.290;2022-07-09T00:29:30;102104.75;;;22.70;56.22
25232;BME280;13176;51.140;6.290;2022-07-09T00:31:57;102092.75;;;22.60;56.08
25232;BME280;13176;51.140;6.290;2022-07-09T00:34:23;102099.88;;;22.60;56.17
25232;BME280;13176;51.140;6.290;2022-07-09T00:36:50;102036.22;;;22.32;56.48
25232;BME280;13176;51.140;6.290;2022-07-09T00:39:16;102089.69;;;22.49;56.55
25232;BME280;13176;51.140;6.290;2022-07-09T00:41:43;102107.91;;;22.58;56.54
25232;BME280;13176;51.140;6.290;2022-07-09T00:44:09;102068.63;;;22.43;55.75
25232;BME280;13176;51.140;6.290;2022-07-09T00:46:35;102058.50;;;22.30;56.18
25232;BME280;13176;51.140;6.290;2022-07-09T00:49:02;102099.75;;;22.63;56.21
25232;BME280;13176;51.140;6.290;2022-07-09T00:51:32;102061.22;;;22.28;56.33
25232;BME280;13176;51.140;6.290;2022-07-09T00:53:59;102091.09;;;22.36;56.99
25232;BME280;13176;51.140;6.290;2022-07-09T00:56:28;102093.63;;;22.39;57.27
25232;BME280;13176;51.140;6.290;2022-07-09T00:58:55;102108.66;;;22.40;57.70
25232;BME280;13176;51.140;6.290;2022-07-09T01:01:22;102073.59;;;22.29;57.43
25232;BME280;13176;51.140;6.290;2022-07-09T01:03:48;102075.31;;;22.30;56.78
25232;BME280;13176;51.140;6.290;2022-07-09T01:06:15;102093.50;;;22.42;57.05
25232;BME280;13176;51.140;6.290;2022-07-09T01:08:41;102068.38;;;22.26;56.23
25232;BME280;13176;51.140;6.290;2022-07-09T01:11:08;102071.31;;;22.20;56.81
25232;BME280;13176;51.140;6.290;2022-07-09T01:13:34;102073.59;;;22.29;56.08
25232;BME280;13176;51.140;6.290;2022-07-09T01:16:01;102065.94;;;22.22;56.25
25232;BME280;13176;51.140;6.290;2022-07-09T01:18:28;102023.56;;;21.94;56.19
25232;BME280;13176;51.140;6.290;2022-07-09T01:20:54;102076.13;;;22.32;56.49
25232;BME280;13176;51.140;6.290;2022-07-09T01:23:21;102087.81;;;22.28;56.84
25232;BME280;13176;51.140;6.290;2022-07-09T01:25:48;102061.97;;;22.10;57.05
25232;BME280;13176;51.140;6.290;2022-07-09T01:28:14;102049.69;;;22.06;56.93
25232;BME280;13176;51.140;6.290;2022-07-09T01:30:41;102095.31;;;22.19;57.23
25232;BME280;13176;51.140;6.290;2022-07-09T01:33:08;102069.13;;;22.08;57.43
25232;BME280;13176;51.140;6.290;2022-07-09T01:35:34;102031.25;;;21.81;57.37
25232;BME280;13176;51.140;6.290;2022-07-09T01:38:01;102071.94;;;22.04;57.09
25232;BME280;13176;51.140;6.290;2022-07-09T01:40:27;102055.38;;;21.97;56.63
25232;BME280;13176;51.140;6.290;2022-07-09T01:42:54;102066.69;;;22.02;57.04
25232;BME280;13176;51.140;6.290;2022-07-09T01:45:20;102029.00;;;21.91;56.79
25232;BME280;13176;51.140;6.290;2022-07-09T01:47:47;102063.13;;;22.03;57.12
25232;BME280;13176;51.140;6.290;2022-07-09T01:50:13;102084.28;;;22.06;57.40
25232;BME280;13176;51.140;6.290;2022-07-09T01:52:40;102063.13;;;21.81;57.72
25232;BME280;13176;51.140;6.290;2022-07-09T01:55:07;102078.53;;;21.71;58.96
25232;BME280;13176;51.140;6.290;2022-07-09T01:57:33;102064.84;;;21.59;59.39
25232;BME280;13176;51.140;6.290;2022-07-09T02:00:00;102037.66;;;21.51;58.49
25232;BME280;13176;51.140;6.290;2022-07-09T02:02:27;102051.34;;;21.65;58.36
25232;BME280;13176;51.140;6.290;2022-07-09T02:04:53;102070.09;;;21.85;57.94
25232;BME280;13176;51.140;6.290;2022-07-09T02:07:21;102063.97;;;21.83;58.00
25232;BME280;13176;51.140;6.290;2022-07-09T02:09:47;102073.78;;;21.81;57.98
25232;BME280;13176;51.140;6.290;2022-07-09T02:12:16;102053.06;;;21.66;58.07
25232;BME280;13176;51.140;6.290;2022-07-09T02:14:43;101997.56;;;21.34;58.47
25232;BME280;13176;51.140;6.290;2022-07-09T02:17:10;102050.72;;;21.57;58.64
25232;BME280;13176;51.140;6.290;2022-07-09T02:19:37;102036.94;;;21.23;59.58
25232;BME280;13176;51.140;6.290;2022-07-09T02:22:03;102046.28;;;21.10;60.46
25232;BME280;13176;51.140;6.290;2022-07-09T02:24:30;102035.91;;;21.02;60.53
25232;BME280;13176;51.140;6.290;2022-07-09T02:26:57;102045.06;;;20.94;61.07
25232;BME280;13176;51.140;6.290;2022-07-09T02:29:23;102000.25;;;20.59;61.57
25232;BME280;13176;51.140;6.290;2022-07-09T02:31:49;102023.00;;;20.66;61.94
25232;BME280;13176;51.140;6.290;2022-07-09T02:34:16;102028.63;;;20.83;61.47
25232;BME280;13176;51.140;6.290;2022-07-09T02:36:42;102018.19;;;21.03;60.51
25232;BME280;13176;51.140;6.290;2022-07-09T02:39:09;102042.72;;;21.34;59.88
25232;BME280;13176;51.140;6.290;2022-07-09T02:41:36;102038.25;;;21.36;59.04
25232;BME280;13176;51.140;6.290;2022-07-09T02:44:02;101976.69;;;21.00;58.93
25232;BME280;13176;51.140;6.290;2022-07-09T02:46:28;102059.06;;;21.48;58.82
25232;BME280;13176;51.140;6.290;2022-07-09T02:48:55;102006.47;;;21.08;58.81
25232;BME280;13176;51.140;6.290;2022-07-09T02:51:22;102026.09;;;21.29;59.02
25232;BME280;13176;51.140;6.290;2022-07-09T02:53:48;102030.22;;;21.13;58.63
25232;BME280;13176;51.140;6.290;2022-07-09T02:56:14;102052.75;;;21.26;58.97
25232;BME280;13176;51.140;6.290;2022-07-09T02:58:41;102028.16;;;21.21;58.84
25232;BME280;13176;51.140;6.290;2022-07-09T03:01:07;102058.97;;;21.26;58.93
25232;BME280;13176;51.140;6.290;2022-07-09T03:03:34;102054.50;;;21.27;59.03
25232;BME280;13176;51.140;6.290;2022-07-09T03:06:04;102013.00;;;21.00;59.24
25232;BME280;13176;51.140;6.290;2022-07-09T03:08:31;101954.88;;;20.67;58.90
25232;BME280;13176;51.140;6.290;2022-07-09T03:10:58;102065.44;;;21.18;59.07
25232;BME280;13176;51.140;6.290;2022-07-09T03:13:25;102025.56;;;20.95;59.34
25232;BME280;13176;51.140;6.290;2022-07-09T03:15:51;102020.25;;;20.95;59.10
25232;BME280;13176;51.140;6.290;2022-07-09T03:18:18;102044.31;;;21.15;59.09
25232;BME280;13176;51.140;6.290;2022-07-09T03:20:44;101999.72;;;21.00;58.80
25232;BME280;13176;51.140;6.290;2022-07-09T03:23:11;102049.06;;;21.05;60.28
25232;BME280;13176;51.140;6.290;2022-07-09T03:25:39;101977.28;;;20.58;60.51
25232;BME280;13176;51.140;6.290;2022-07-09T03:28:06;102020.56;;;20.86;59.77
25232;BME280;13176;51.140;6.290;2022-07-09T03:30:32;102022.41;;;20.84;59.92
25232;BME280;13176;51.140;6.290;2022-07-09T03:32:59;102015.97;;;20.91;59.71
25232;BME280;13176;51.140;6.290;2022-07-09T03:35:25;101997.41;;;20.65;60.38
25232;BME280;13176;51.140;6.290;2022-07-09T03:37:51;102007.28;;;20.60;60.77
25232;BME280;13176;51.140;6.290;2022-07-09T03:40:18;102009.34;;;20.52;61.14
25232;BME280;13176;51.140;6.290;2022-07-09T03:42:44;102023.59;;;20.48;61.85
25232;BME280;13176;51.140;6.290;2022-07-09T03:45:11;101981.69;;;20.33;61.43
25232;BME280;13176;51.140;6.290;2022-07-09T03:47:37;102030.78;;;20.72;61.01
25232;BME280;13176;51.140;6.290;2022-07-09T03:50:04;101982.00;;;20.50;60.91
25232;BME280;13176;51.140;6.290;2022-07-09T03:52:31;102034.38;;;20.69;60.78
25232;BME280;13176;51.140;6.290;2022-07-09T03:54:57;101972.72;;;20.37;60.96
25232;BME280;13176;51.140;6.290;2022-07-09T03:57:24;102034.69;;;20.61;61.61
25232;BME280;13176;51.140;6.290;2022-07-09T03:59:50;102009.97;;;20.34;62.40
25232;BME280;13176;51.140;6.290;2022-07-09T04:02:17;101987.59;;;20.15;62.42
25232;BME280;13176;51.140;6.290;2022-07-09T04:04:43;102046.56;;;20.49;62.54
25232;BME280;13176;51.140;6.290;2022-07-09T04:07:10;101993.41;;;20.26;62.38
25232;BME280;13176;51.140;6.290;2022-07-09T04:09:36;102030.66;;;20.49;62.04
25232;BME280;13176;51.140;6.290;2022-07-09T04:12:03;102032.00;;;20.62;61.82
25232;BME280;13176;51.140;6.290;2022-07-09T04:14:30;101991.88;;;20.45;61.49
25232;BME280;13176;51.140;6.290;2022-07-09T04:16:56;102042.25;;;20.72;61.73
25232;BME280;13176;51.140;6.290;2022-07-09T04:19:23;102037.59;;;20.53;62.32
25232;BME280;13176;51.140;6.290;2022-07-09T04:21:49;102045.91;;;20.43;63.43
25232;BME280;13176;51.140;6.290;2022-07-09T04:24:16;102014.00;;;20.18;63.69
25232;BME280;13176;51.140;6.290;2022-07-09T04:26:43;101989.84;;;20.01;64.39
25232;BME280;13176;51.140;6.290;2022-07-09T04:29:09;102027.78;;;20.29;64.65
25232;BME280;13176;51.140;6.290;2022-07-09T04:31:37;102049.22;;;20.49;64.12
25232;BME280;13176;51.140;6.290;2022-07-09T04:34:03;102025.16;;;20.29;64.55
25232;BME280;13176;51.140;6.290;2022-07-09T04:36:30;102027.69;;;20.32;64.87
25232;BME280;13176;51.140;6.290;2022-07-09T04:38:58;102001.94;;;20.08;65.03
25232;BME280;13176;51.140;6.290;2022-07-09T04:41:24;102036.66;;;20.28;65.72
25232;BME280;13176;51.140;6.290;2022-07-09T04:43:51;102030.09;;;20.12;65.94
25232;BME280;13176;51.140;6.290;2022-07-09T04:46:17;101985.59;;;19.94;66.17
25232;BME280;13176;51.140;6.290;2022-07-09T04:48:44;102027.00;;;20.26;66.75
25232;BME280;13176;51.140;6.290;2022-07-09T04:51:14;101961.28;;;19.82;66.44
25232;BME280;13176;51.140;6.290;2022-07-09T04:53:40;102043.72;;;20.29;66.51
25232;BME280;13176;51.140;6.290;2022-07-09T04:56:07;102024.34;;;20.26;66.11
25232;BME280;13176;51.140;6.290;2022-07-09T04:58:34;102013.19;;;20.16;66.39
25232;BME280;13176;51.140;6.290;2022-07-09T05:01:03;102033.38;;;20.20;67.06
25232;BME280;13176;51.140;6.290;2022-07-09T05:03:30;102054.13;;;20.35;67.28
25232;BME280;13176;51.140;6.290;2022-07-09T05:05:57;102057.44;;;20.42;67.13
25232;BME280;13176;51.140;6.290;2022-07-09T05:08:25;102042.63;;;20.35;67.31
25232;BME280;13176;51.140;6.290;2022-07-09T05:10:51;102008.53;;;20.23;67.45
25232;BME280;13176;51.140;6.290;2022-07-09T05:13:18;102063.22;;;20.54;67.63
25232;BME280;13176;51.140;6.290;2022-07-09T05:15:44;102054.16;;;20.60;67.52
25232;BME280;13176;51.140;6.290;2022-07-09T05:18:10;102039.22;;;20.57;67.52
25232;BME280;13176;51.140;6.290;2022-07-09T05:20:37;102043.97;;;20.48;68.72
25232;BME280;13176;51.140;6.290;2022-07-09T05:23:06;102043.78;;;20.54;69.05
25232;BME280;13176;51.140;6.290;2022-07-09T05:25:32;102038.94;;;20.66;68.81
25232;BME280;13176;51.140;6.290;2022-07-09T05:27:59;102059.56;;;20.84;68.95
25232;BME280;13176;51.140;6.290;2022-07-09T05:30:25;102034.75;;;20.85;68.47
25232;BME280;13176;51.140;6.290;2022-07-09T05:32:52;101957.69;;;20.62;68.14
25232;BME280;13176;51.140;6.290;2022-07-09T05:35:18;102032.50;;;20.99;68.50
25232;BME280;13176;51.140;6.290;2022-07-09T05:37:45;102008.44;;;21.03;68.12
25232;BME280;13176;51.140;6.290;2022-07-09T05:40:11;102014.84;;;20.98;68.02
25232;BME280;13176;51.140;6.290;2022-07-09T05:42:38;102026.53;;;21.17;67.82
25232;BME280;13176;51.140;6.290;2022-07-09T05:45:06;102044.09;;;21.21;68.40
25232;BME280;13176;51.140;6.290;2022-07-09T05:47:33;101953.56;;;20.78;67.85
25232;BME280;13176;51.140;6.290;2022-07-09T05:50:00;102038.34;;;21.33;67.89
25232;BME280;13176;51.140;6.290;2022-07-09T05:52:26;102049.91;;;21.55;67.64
25232;BME280;13176;51.140;6.290;2022-07-09T05:54:53;102024.13;;;21.34;67.62
25232;BME280;13176;51.140;6.290;2022-07-09T05:57:19;102033.84;;;21.58;67.30
25232;BME280;13176;51.140;6.290;2022-07-09T05:59:45;102058.44;;;21.87;66.91
25232;BME280;13176;51.140;6.290;2022-07-09T06:02:12;102051.44;;;22.07;65.86
25232;BME280;13176;51.140;6.290;2022-07-09T06:04:38;102016.16;;;22.02;64.61
25232;BME280;13176;51.140;6.290;2022-07-09T06:07:05;102035.72;;;22.01;64.03
25232;BME280;13176;51.140;6.290;2022-07-09T06:09:31;102035.59;;;22.04;64.33
25232;BME280;13176;51.140;6.290;2022-07-09T06:11:58;102007.59;;;21.96;64.24
25232;BME280;13176;51.140;6.290;2022-07-09T06:14:26;102016.88;;;22.07;64.09
25232;BME280;13176;51.140;6.290;2022-07-09T06:16:53;101998.47;;;22.01;63.41
25232;BME280;13176;51.140;6.290;2022-07-09T06:19:22;102017.84;;;22.26;63.12
25232;BME280;13176;51.140;6.290;2022-07-09T06:21:48;102030.38;;;22.46;61.79
25232;BME280;13176;51.140;6.290;2022-07-09T06:24:15;102028.34;;;22.52;61.51
25232;BME280;13176;51.140;6.290;2022-07-09T06:26:42;101977.94;;;22.48;59.72
25232;BME280;13176;51.140;6.290;2022-07-09T06:29:08;101991.59;;;22.60;59.82
25232;BME280;13176;51.140;6.290;2022-07-09T06:31:35;101996.91;;;22.40;60.70
25232;BME280;13176;51.140;6.290;2022-07-09T06:34:02;101981.28;;;22.31;60.95
25232;BME280;13176;51.140;6.290;2022-07-09T06:36:29;102031.28;;;22.66;60.55
25232;BME280;13176;51.140;6.290;2022-07-09T06:38:55;102021.63;;;22.64;60.85
25232;BME280;13176;51.140;6.290;2022-07-09T06:41:54;102013.69;;;22.62;60.85
25232;BME280;13176;51.140;6.290;2022-07-09T06:44:20;102016.78;;;22.73;60.83
25232;BME280;13176;51.140;6.290;2022-07-09T06:46:47;102012.09;;;22.58;59.99
25232;BME280;13176;51.140;6.290;2022-07-09T06:49:13;102028.94;;;22.79;59.46
25232;BME280;13176;51.140;6.290;2022-07-09T06:51:40;102001.06;;;22.67;57.75
25232;BME280;13176;51.140;6.290;2022-07-09T06:54:06;102018.28;;;22.59;58.37
25232;BME280;13176;51.140;6.290;2022-07-09T06:56:33;101994.25;;;22.60;58.31
25232;BME280;13176;51.140;6.290;2022-07-09T06:58:59;102042.59;;;22.71;59.02
25232;BME280;13176;51.140;6.290;2022-07-09T07:01:25;101994.41;;;22.57;59.58
25232;BME280;13176;51.140;6.290;2022-07-09T07:03:52;101992.41;;;22.62;59.75
25232;BME280;13176;51.140;6.290;2022-07-09T07:06:18;102038.44;;;23.06;59.09
25232;BME280;13176;51.140;6.290;2022-07-09T07:08:45;102042.19;;;23.21;59.07
25232;BME280;13176;51.140;6.290;2022-07-09T07:11:11;101990.81;;;22.98;59.01
25232;BME280;13176;51.140;6.290;2022-07-09T07:13:38;102009.50;;;23.18;58.82
25232;BME280;13176;51.140;6.290;2022-07-09T07:16:05;101948.47;;;22.72;59.43
25232;BME280;13176;51.140;6.290;2022-07-09T07:18:32;101950.88;;;22.58;59.45
25232;BME280;13176;51.140;6.290;2022-07-09T07:20:58;102039.50;;;23.02;59.92
25232;BME280;13176;51.140;6.290;2022-07-09T07:23:25;102020.78;;;23.03;60.02
25232;BME280;13176;51.140;6.290;2022-07-09T07:25:51;101992.75;;;23.14;59.22
25232;BME280;13176;51.140;6.290;2022-07-09T07:28:18;102020.31;;;23.33;59.33
25232;BME280;13176;51.140;6.290;2022-07-09T07:30:44;102016.47;;;23.40;58.87
25232;BME280;13176;51.140;6.290;2022-07-09T07:33:11;101996.69;;;23.26;59.01
25232;BME280;13176;51.140;6.290;2022-07-09T07:35:37;102037.81;;;23.59;58.58
25232;BME280;13176;51.140;6.290;2022-07-09T07:38:04;102018.06;;;23.63;57.59
25232;BME280;13176;51.140;6.290;2022-07-09T07:40:30;102024.03;;;23.68;56.65
25232;BME280;13176;51.140;6.290;2022-07-09T07:42:57;102023.81;;;23.54;56.19
25232;BME280;13176;51.140;6.290;2022-07-09T07:45:23;102006.25;;;23.68;55.59
25232;BME280;13176;51.140;6.290;2022-07-09T07:47:50;102026.28;;;23.77;55.88
25232;BME280;13176;51.140;6.290;2022-07-09T07:50:16;102018.13;;;23.81;55.73
25232;BME280;13176;51.140;6.290;2022-07-09T07:52:43;101947.97;;;23.61;54.66
25232;BME280;13176;51.140;6.290;2022-07-09T07:55:13;102013.09;;;24.11;54.48
25232;BME280;13176;51.140;6.290;2022-07-09T07:57:39;101958.56;;;23.81;54.41
25232;BME280;13176;51.140;6.290;2022-07-09T08:00:06;101981.72;;;24.16;54.36
25232;BME280;13176;51.140;6.290;2022-07-09T08:02:34;102017.94;;;24.56;53.35
25232;BME280;13176;51.140;6.290;2022-07-09T08:05:01;102023.59;;;24.50;53.93
25232;BME280;13176;51.140;6.290;2022-07-09T08:07:27;102014.50;;;24.54;54.47
25232;BME280;13176;51.140;6.290;2022-07-09T08:09:54;102021.59;;;24.72;54.12
25232;BME280;13176;51.140;6.290;2022-07-09T08:12:20;101985.91;;;24.56;54.46
25232;BME280;13176;51.140;6.290;2022-07-09T08:14:47;101990.47;;;24.54;54.44
25232;BME280;13176;51.140;6.290;2022-07-09T08:17:13;102014.38;;;24.74;53.87
25232;BME280;13176;51.140;6.290;2022-07-09T08:19:40;102019.53;;;24.77;53.92
25232;BME280;13176;51.140;6.290;2022-07-09T08:22:06;101985.75;;;24.59;52.93
25232;BME280;13176;51.140;6.290;2022-07-09T08:24:33;101994.63;;;24.77;52.54
25232;BME280;13176;51.140;6.290;2022-07-09T08:26:59;102000.53;;;24.66;52.78
25232;BME280;13176;51.140;6.290;2022-07-09T08:29:26;101999.97;;;24.94;51.91
25232;BME280;13176;51.140;6.290;2022-07-09T08:31:52;102006.72;;;25.01;51.69
25232;BME280;13176;51.140;6.290;2022-07-09T08:34:19;101999.09;;;25.10;51.21
25232;BME280;13176;51.140;6.290;2022-07-09T08:36:45;102006.31;;;25.25;50.46
25232;BME280;13176;51.140;6.290;2022-07-09T08:39:12;101975.88;;;25.11;48.81
25232;BME280;13176;51.140;6.290;2022-07-09T08:41:38;102018.09;;;25.38;48.89
25232;BME280;13176;51.140;6.290;2022-07-09T08:44:10;102015.88;;;25.46;49.12
25232;BME280;13176;51.140;6.290;2022-07-09T08:46:37;102018.16;;;25.37;49.96
25232;BME280;13176;51.140;6.290;2022-07-09T08:49:07;101966.69;;;25.16;49.53
25232;BME280;13176;51.140;6.290;2022-07-09T08:51:35;102015.88;;;25.46;49.75
25232;BME280;13176;51.140;6.290;2022-07-09T08:54:03;101988.22;;;25.30;50.39
25232;BME280;13176;51.140;6.290;2022-07-09T08:56:29;101991.53;;;25.35;50.43
25232;BME280;13176;51.140;6.290;2022-07-09T08:58:56;101923.81;;;25.02;50.38
25232;BME280;13176;51.140;6.290;2022-07-09T09:01:25;101992.75;;;25.45;50.13
25232;BME280;13176;51.140;6.290;2022-07-09T09:03:52;101979.66;;;25.56;50.17
25232;BME280;13176;51.140;6.290;2022-07-09T09:06:21;101936.78;;;25.57;50.25
25232;BME280;13176;51.140;6.290;2022-07-09T09:08:48;101933.75;;;25.63;49.60
25232;BME280;13176;51.140;6.290;2022-07-09T09:11:19;101965.75;;;25.82;50.00
25232;BME280;13176;51.140;6.290;2022-07-09T09:13:47;101964.06;;;25.95;49.17
25232;BME280;13176;51.140;6.290;2022-07-09T09:16:16;101923.66;;;25.68;49.28
25232;BME280;13176;51.140;6.290;2022-07-09T09:18:45;101932.22;;;25.75;49.73
25232;BME280;13176;51.140;6.290;2022-07-09T09:21:12;101952.53;;;26.24;49.24
25232;BME280;13176;51.140;6.290;2022-07-09T09:23:44;101953.31;;;26.26;48.77
25232;BME280;13176;51.140;6.290;2022-07-09T09:26:16;101937.13;;;26.43;48.53
25232;BME280;13176;51.140;6.290;2022-07-09T09:31:25;101894.00;;;26.76;46.24
25232;BME280;13176;51.140;6.290;2022-07-09T09:33:55;101924.97;;;26.67;47.10
25232;BME280;13176;51.140;6.290;2022-07-09T09:36:28;101943.59;;;26.83;47.21
25232;BME280;13176;51.140;6.290;2022-07-09T09:39:16;101943.78;;;26.80;47.41
25232;BME280;13176;51.140;6.290;2022-07-09T09:41:45;101889.66;;;26.31;47.34
25232;BME280;13176;51.140;6.290;2022-07-09T09:44:16;101924.56;;;26.59;46.90
25232;BME280;13176;51.140;6.290;2022-07-09T09:46:44;101942.19;;;26.63;47.96
25232;BME280;13176;51.140;6.290;2022-07-09T09:49:13;101928.25;;;26.71;47.29
25232;BME280;13176;51.140;6.290;2022-07-09T09:54:17;101853.19;;;26.44;45.32
25232;BME280;13176;51.140;6.290;2022-07-09T09:56:45;101941.69;;;26.85;45.51
25232;BME280;13176;51.140;6.290;2022-07-09T09:59:12;101940.63;;;26.45;45.60
25232;BME280;13176;51.140;6.290;2022-07-09T10:01:40;101912.16;;;26.71;45.95
25232;BME280;13176;51.140;6.290;2022-07-09T10:04:08;101894.91;;;26.62;45.48
25232;BME280;13176;51.140;6.290;2022-07-09T10:06:35;101895.09;;;26.59;45.58
25232;BME280;13176;51.140;6.290;2022-07-09T10:09:07;101908.34;;;26.75;46.02
25232;BME280;13176;51.140;6.290;2022-07-09T10:11:42;101926.91;;;26.78;45.19
25232;BME280;13176;51.140;6.290;2022-07-09T10:16:52;101922.88;;;26.71;44.79
25232;BME280;13176;51.140;6.290;2022-07-09T10:19:30;101762.66;;;25.62;44.45
25232;BME280;13176;51.140;6.290;2022-07-09T10:22:00;101852.56;;;26.39;43.89
25232;BME280;13176;51.140;6.290;2022-07-09T10:24:29;101936.38;;;26.70;43.77
25232;BME280;13176;51.140;6.290;2022-07-09T10:27:06;101924.97;;;26.67;43.46
25232;BME280;13176;51.140;6.290;2022-07-09T10:29:35;101929.19;;;26.57;43.74
25232;BME280;13176;51.140;6.290;2022-07-09T10:32:02;101933.88;;;26.38;44.67
25232;BME280;13176;51.140;6.290;2022-07-09T10:34:48;101936.09;;;26.74;44.79
25232;BME280;13176;51.140;6.290;2022-07-09T10:37:17;101867.28;;;26.61;44.80
25232;BME280;13176;51.140;6.290;2022-07-09T10:39:54;101901.06;;;26.77;45.19
25232;BME280;13176;51.140;6.290;2022-07-09T10:42:21;101915.81;;;26.70;45.81
25232;BME280;13176;51.140;6.290;2022-07-09T10:44:50;101832.53;;;26.16;46.49
25232;BME280;13176;51.140;6.290;2022-07-09T10:47:17;101820.97;;;26.30;45.78
25232;BME280;13176;51.140;6.290;2022-07-09T10:49:44;101899.75;;;26.98;45.55
25232;BME280;13176;51.140;6.290;2022-07-09T10:52:11;101887.03;;;27.16;45.20
25232;BME280;13176;51.140;6.290;2022-07-09T10:54:48;101860.31;;;27.28;44.87
25232;BME280;13176;51.140;6.290;2022-07-09T10:57:14;101839.06;;;27.11;44.44
25232;BME280;13176;51.140;6.290;2022-07-09T10:59:50;101862.16;;;27.54;44.13
25232;BME280;13176;51.140;6.290;2022-07-09T11:02:20;101852.84;;;27.05;43.42
25232;BME280;13176;51.140;6.290;2022-07-09T11:04:51;101862.38;;;27.37;43.30
25232;BME280;13176;51.140;6.290;2022-07-09T11:07:25;101838.81;;;27.42;43.98
25232;BME280;13176;51.140;6.290;2022-07-09T11:09:52;101874.50;;;27.16;45.11
25232;BME280;13176;51.140;6.290;2022-07-09T11:12:20;101771.63;;;26.34;45.29
25232;BME280;13176;51.140;6.290;2022-07-09T11:14:48;101846.53;;;27.20;44.84
25232;BME280;13176;51.140;6.290;2022-07-09T11:17:19;101866.47;;;27.16;45.22
25232;BME280;13176;51.140;6.290;2022-07-09T11:19:47;101887.91;;;27.30;45.49
25232;BME280;13176;51.140;6.290;2022-07-09T11:22:15;101740.84;;;26.41;46.04
25232;BME280;13176;51.140;6.290;2022-07-09T11:24:41;101869.72;;;27.21;46.32
25232;BME280;13176;51.140;6.290;2022-07-09T11:27:08;101881.00;;;27.12;45.78
25232;BME280;13176;51.140;6.290;2022-07-09T11:29:36;101792.16;;;26.90;44.99
25232;BME280;13176;51.140;6.290;2022-07-09T11:32:03;101864.34;;;27.21;45.35
25232;BME280;13176;51.140;6.290;2022-07-09T11:34:30;101857.84;;;27.92;45.35
25232;BME280;13176;51.140;6.290;2022-07-09T11:36:58;101828.22;;;28.06;45.03
25232;BME280;13176;51.140;6.290;2022-07-09T11:39:31;101864.56;;;28.38;43.93
25232;BME280;13176;51.140;6.290;2022-07-09T11:42:00;101857.47;;;28.37;43.16
25232;BME280;13176;51.140;6.290;2022-07-09T11:44:31;101849.81;;;28.31;43.13
25232;BME280;13176;51.140;6.290;2022-07-09T11:47:05;101787.44;;;28.01;43.26
25232;BME280;13176;51.140;6.290;2022-07-09T11:49:41;101822.06;;;28.30;43.70
25232;BME280;13176;51.140;6.290;2022-07-09T11:52:19;101838.06;;;27.81;44.31
25232;BME280;13176;51.140;6.290;2022-07-09T11:54:59;101859.94;;;28.40;43.51
25232;BME280;13176;51.140;6.290;2022-07-09T11:57:27;101865.53;;;27.84;44.15
25232;BME280;13176;51.140;6.290;2022-07-09T11:59:53;101837.72;;;27.18;45.33
25232;BME280;13176;51.140;6.290;2022-07-09T12:04:53;101839.44;;;27.19;45.71
25232;BME280;13176;51.140;6.290;2022-07-09T12:07:20;101839.19;;;27.10;46.01
25232;BME280;13176;51.140;6.290;2022-07-09T12:09:57;101834.84;;;26.79;46.71
25232;BME280;13176;51.140;6.290;2022-07-09T12:12:24;101784.88;;;26.65;47.43
25232;BME280;13176;51.140;6.290;2022-07-09T12:14:51;101807.84;;;26.82;47.26
25232;BME280;13176;51.140;6.290;2022-07-09T12:17:19;101758.13;;;26.51;47.89
25232;BME280;13176;51.140;6.290;2022-07-09T12:19:45;101839.94;;;26.70;48.03
25232;BME280;13176;51.140;6.290;2022-07-09T12:22:24;101779.09;;;26.29;49.76
25232;BME280;13176;51.140;6.290;2022-07-09T12:24:52;101847.88;;;25.99;55.65
25232;BME280;13176;51.140;6.290;2022-07-09T12:27:19;101868.47;;;25.04;62.76
25232;BME280;13176;51.140;6.290;2022-07-09T12:29:49;101885.25;;;24.23;69.84
25232;BME280;13176;51.140;6.290;2022-07-09T12:32:16;101778.34;;;23.23;74.27
25232;BME280;13176;51.140;6.290;2022-07-09T12:34:42;101806.44;;;23.30;76.53
25232;BME280;13176;51.140;6.290;2022-07-09T12:37:09;101805.28;;;23.17;78.12
25232;BME280;13176;51.140;6.290;2022-07-09T12:39:35;101827.28;;;23.39;78.84
25232;BME280;13176;51.140;6.290;2022-07-09T12:42:02;101819.78;;;23.47;77.43
25232;BME280;13176;51.140;6.290;2022-07-09T12:44:29;101829.69;;;23.80;76.60
25232;BME280;13176;51.140;6.290;2022-07-09T12:46:55;101815.91;;;24.06;79.18
25232;BME280;13176;51.140;6.290;2022-07-09T12:49:22;101831.81;;;24.58;79.44
25232;BME280;13176;51.140;6.290;2022-07-09T12:51:48;101836.59;;;24.84;76.74
25232;BME280;13176;51.140;6.290;2022-07-09T12:54:15;101842.31;;;25.26;77.47
25232;BME280;13176;51.140;6.290;2022-07-09T12:56:41;101792.97;;;25.16;76.28
25232;BME280;13176;51.140;6.290;2022-07-09T12:59:28;101837.78;;;25.73;75.26
25232;BME280;13176;51.140;6.290;2022-07-09T13:01:54;101804.50;;;25.48;73.72